San Martin, Argentina
Current Conditions -  °F | °C
As of 11:00 AM on Friday 31 Oct 2014 (Local Time) from SAME Reporting Station
Clear Clear  
Wind Chill: 61°   Ceiling: Unl
Heat Index: 61°   Visibility: 6mi
Dew Point: 19°   Wind: 9mph
Humidity: 20%   Direction: 140°SE
Pressure: 30.09"   Gusts: NA
Location:  33.07°S, 68.49°W
Report Text: SAME 311400Z 14008KT CAVOK 16/M07 Q1019
Loading
Personal Weather Stations






























Interactive Weather Map New forecast layout! Learn more

10-Day Weather Forecast

Advertisements
Track Severe Weather on mobile